sensor_id;sensor_type;location;lat;lon;timestamp;pressure;altitude;pressure_sealevel;temperature;humidity
80892;BME280;70343;51.530;5.050;2023-06-22T00:00:44;101867.84;;;21.48;60.60
80892;BME280;70343;51.530;5.050;2023-06-22T00:03:10;101858.59;;;21.62;59.78
80892;BME280;70343;51.530;5.050;2023-06-22T00:05:35;101865.16;;;21.59;59.56
80892;BME280;70343;51.530;5.050;2023-06-22T00:08:04;101867.06;;;21.47;60.62
80892;BME280;70343;51.530;5.050;2023-06-22T00:10:30;101860.84;;;21.42;60.24
80892;BME280;70343;51.530;5.050;2023-06-22T00:12:56;101853.03;;;21.63;59.27
80892;BME280;70343;51.530;5.050;2023-06-22T00:15:21;101853.50;;;21.60;59.04
80892;BME280;70343;51.530;5.050;2023-06-22T00:17:47;101853.88;;;21.52;59.64
80892;BME280;70343;51.530;5.050;2023-06-22T00:20:12;101855.28;;;21.55;59.38
80892;BME280;70343;51.530;5.050;2023-06-22T00:22:39;101852.63;;;21.55;59.52
80892;BME280;70343;51.530;5.050;2023-06-22T00:25:08;101855.88;;;21.45;61.05
80892;BME280;70343;51.530;5.050;2023-06-22T00:27:35;101853.84;;;21.36;60.54
80892;BME280;70343;51.530;5.050;2023-06-22T00:30:00;101853.16;;;21.28;60.77
80892;BME280;70343;51.530;5.050;2023-06-22T00:32:27;101859.28;;;21.17;61.50
80892;BME280;70343;51.530;5.050;2023-06-22T00:34:53;101860.56;;;20.92;62.45
80892;BME280;70343;51.530;5.050;2023-06-22T00:37:18;101864.03;;;20.92;61.37
80892;BME280;70343;51.530;5.050;2023-06-22T00:39:44;101859.66;;;20.86;62.26
80892;BME280;70343;51.530;5.050;2023-06-22T00:42:10;101861.59;;;20.79;62.16
80892;BME280;70343;51.530;5.050;2023-06-22T00:44:36;101848.81;;;20.76;62.57
80892;BME280;70343;51.530;5.050;2023-06-22T00:47:02;101846.50;;;20.68;63.41
80892;BME280;70343;51.530;5.050;2023-06-22T00:49:28;101840.75;;;20.60;63.64
80892;BME280;70343;51.530;5.050;2023-06-22T00:51:55;101831.31;;;20.75;61.76
80892;BME280;70343;51.530;5.050;2023-06-22T00:54:21;101832.56;;;20.61;62.79
80892;BME280;70343;51.530;5.050;2023-06-22T00:56:55;101835.66;;;20.81;61.86
80892;BME280;70343;51.530;5.050;2023-06-22T00:59:23;101838.19;;;20.99;60.99
80892;BME280;70343;51.530;5.050;2023-06-22T01:01:49;101823.00;;;21.06;59.88
80892;BME280;70343;51.530;5.050;2023-06-22T01:04:15;101833.03;;;21.04;60.10
80892;BME280;70343;51.530;5.050;2023-06-22T01:12:30;101835.66;;;20.81;61.05
80892;BME280;70343;51.530;5.050;2023-06-22T01:15:11;101836.72;;;20.80;62.10
80892;BME280;70343;51.530;5.050;2023-06-22T01:17:40;101838.31;;;20.70;62.67
80892;BME280;70343;51.530;5.050;2023-06-22T01:20:10;101835.47;;;20.60;62.59
80892;BME280;70343;51.530;5.050;2023-06-22T01:25:48;101836.59;;;20.75;61.65
80892;BME280;70343;51.530;5.050;2023-06-22T01:31:04;101822.88;;;20.67;61.67
80892;BME280;70343;51.530;5.050;2023-06-22T01:33:37;101830.72;;;20.73;61.85
80892;BME280;70343;51.530;5.050;2023-06-22T01:36:04;101832.22;;;20.69;61.05
80892;BME280;70343;51.530;5.050;2023-06-22T01:38:32;101829.69;;;20.74;60.79
80892;BME280;70343;51.530;5.050;2023-06-22T01:40:59;101832.91;;;20.76;60.94
80892;BME280;70343;51.530;5.050;2023-06-22T01:43:26;101837.53;;;20.81;61.41
80892;BME280;70343;51.530;5.050;2023-06-22T01:45:55;101837.63;;;20.74;61.96
80892;BME280;70343;51.530;5.050;2023-06-22T01:48:22;101836.47;;;20.70;61.35
80892;BME280;70343;51.530;5.050;2023-06-22T01:50:47;101839.72;;;20.61;62.71
80892;BME280;70343;51.530;5.050;2023-06-22T01:53:13;101834.66;;;20.59;62.38
80892;BME280;70343;51.530;5.050;2023-06-22T01:55:39;101833.81;;;20.47;63.69
80892;BME280;70343;51.530;5.050;2023-06-22T01:58:05;101836.72;;;20.46;62.50
80892;BME280;70343;51.530;5.050;2023-06-22T02:00:33;101830.13;;;20.48;62.58
80892;BME280;70343;51.530;5.050;2023-06-22T02:03:07;101824.16;;;20.41;63.44
80892;BME280;70343;51.530;5.050;2023-06-22T02:05:43;101831.41;;;20.34;63.89
80892;BME280;70343;51.530;5.050;2023-06-22T02:08:23;101832.56;;;20.50;63.65
80892;BME280;70343;51.530;5.050;2023-06-22T02:10:51;101826.78;;;20.41;63.20
80892;BME280;70343;51.530;5.050;2023-06-22T02:13:19;101831.19;;;20.47;63.04
80892;BME280;70343;51.530;5.050;2023-06-22T02:15:46;101825.31;;;20.45;62.57
80892;BME280;70343;51.530;5.050;2023-06-22T02:18:13;101824.16;;;20.41;62.73
80892;BME280;70343;51.530;5.050;2023-06-22T02:20:39;101823.47;;;20.34;63.13
80892;BME280;70343;51.530;5.050;2023-06-22T02:23:06;101822.53;;;20.40;63.02
80892;BME280;70343;51.530;5.050;2023-06-22T02:25:34;101821.59;;;20.34;63.08
80892;BME280;70343;51.530;5.050;2023-06-22T02:28:01;101814.69;;;20.22;65.35
80892;BME280;70343;51.530;5.050;2023-06-22T02:30:26;101799.13;;;20.25;65.18
80892;BME280;70343;51.530;5.050;2023-06-22T02:32:52;101802.03;;;20.24;64.34
80892;BME280;70343;51.530;5.050;2023-06-22T02:35:25;101803.97;;;20.28;63.86
80892;BME280;70343;51.530;5.050;2023-06-22T02:37:51;101804.66;;;20.24;64.52
80892;BME280;70343;51.530;5.050;2023-06-22T02:40:17;101807.66;;;20.27;64.30
80892;BME280;70343;51.530;5.050;2023-06-22T02:42:42;101805.69;;;20.23;65.22
80892;BME280;70343;51.530;5.050;2023-06-22T02:45:08;101807.84;;;20.14;65.49
80892;BME280;70343;51.530;5.050;2023-06-22T02:47:34;101807.56;;;20.22;64.63
80892;BME280;70343;51.530;5.050;2023-06-22T02:50:03;101815.44;;;20.11;65.63
80892;BME280;70343;51.530;5.050;2023-06-22T02:52:32;101802.22;;;20.11;65.45
80892;BME280;70343;51.530;5.050;2023-06-22T02:54:57;101805.41;;;20.13;65.56
80892;BME280;70343;51.530;5.050;2023-06-22T02:57:23;101801.06;;;20.07;65.73
80892;BME280;70343;51.530;5.050;2023-06-22T02:59:48;101797.34;;;20.08;65.78
80892;BME280;70343;51.530;5.050;2023-06-22T03:02:14;101788.38;;;20.09;65.11
80892;BME280;70343;51.530;5.050;2023-06-22T03:04:40;101784.69;;;20.10;66.37
80892;BME280;70343;51.530;5.050;2023-06-22T03:07:06;101781.44;;;19.96;66.96
80892;BME280;70343;51.530;5.050;2023-06-22T03:09:32;101774.75;;;19.94;66.38
80892;BME280;70343;51.530;5.050;2023-06-22T03:11:58;101765.22;;;19.93;67.11
80892;BME280;70343;51.530;5.050;2023-06-22T03:14:28;101773.16;;;19.93;66.46
80892;BME280;70343;51.530;5.050;2023-06-22T03:16:54;101767.84;;;19.81;67.56
80892;BME280;70343;51.530;5.050;2023-06-22T03:19:20;101769.22;;;19.84;66.89
80892;BME280;70343;51.530;5.050;2023-06-22T03:21:47;101763.22;;;19.77;68.21
80892;BME280;70343;51.530;5.050;2023-06-22T03:24:12;101760.47;;;19.72;67.93
80892;BME280;70343;51.530;5.050;2023-06-22T03:26:38;101764.50;;;19.86;66.93
80892;BME280;70343;51.530;5.050;2023-06-22T03:29:03;101764.63;;;19.91;66.95
80892;BME280;70343;51.530;5.050;2023-06-22T03:31:30;101765.53;;;19.85;67.48
80892;BME280;70343;51.530;5.050;2023-06-22T03:33:56;101766.69;;;19.77;67.26
80892;BME280;70343;51.530;5.050;2023-06-22T03:36:22;101767.03;;;19.81;66.87
80892;BME280;70343;51.530;5.050;2023-06-22T03:38:49;101759.09;;;19.81;67.21
80892;BME280;70343;51.530;5.050;2023-06-22T03:41:16;101770.22;;;19.71;67.22
80892;BME280;70343;51.530;5.050;2023-06-22T03:43:42;101767.25;;;19.79;67.93
80892;BME280;70343;51.530;5.050;2023-06-22T03:46:08;101768.50;;;19.77;67.80
80892;BME280;70343;51.530;5.050;2023-06-22T03:48:33;101756.31;;;19.76;67.24
80892;BME280;70343;51.530;5.050;2023-06-22T03:50:59;101763.56;;;19.80;67.15
80892;BME280;70343;51.530;5.050;2023-06-22T03:53:25;101761.16;;;19.79;67.51
80892;BME280;70343;51.530;5.050;2023-06-22T03:55:52;101759.44;;;19.84;66.71
80892;BME280;70343;51.530;5.050;2023-06-22T03:58:19;101757.13;;;19.88;66.59
80892;BME280;70343;51.530;5.050;2023-06-22T04:00:49;101760.75;;;19.93;66.97
80892;BME280;70343;51.530;5.050;2023-06-22T04:03:15;101760.94;;;19.92;66.26
80892;BME280;70343;51.530;5.050;2023-06-22T04:05:41;101757.63;;;19.96;65.93
80892;BME280;70343;51.530;5.050;2023-06-22T04:08:07;101750.16;;;20.05;66.45
80892;BME280;70343;51.530;5.050;2023-06-22T04:10:33;101751.53;;;20.07;65.73
80892;BME280;70343;51.530;5.050;2023-06-22T04:12:59;101747.16;;;20.13;65.44
80892;BME280;70343;51.530;5.050;2023-06-22T04:15:25;101752.09;;;20.09;66.07
80892;BME280;70343;51.530;5.050;2023-06-22T04:17:50;101748.31;;;20.17;65.94
80892;BME280;70343;51.530;5.050;2023-06-22T04:20:17;101743.00;;;20.17;65.73
80892;BME280;70343;51.530;5.050;2023-06-22T04:22:43;101745.25;;;20.20;65.20
80892;BME280;70343;51.530;5.050;2023-06-22T04:25:08;101754.41;;;20.17;65.49
80892;BME280;70343;51.530;5.050;2023-06-22T04:27:34;101762.97;;;20.19;65.92
80892;BME280;70343;51.530;5.050;2023-06-22T04:30:06;101767.31;;;20.14;66.01
80892;BME280;70343;51.530;5.050;2023-06-22T04:32:35;101763.63;;;20.15;65.89
80892;BME280;70343;51.530;5.050;2023-06-22T04:35:05;101763.56;;;20.21;65.69
80892;BME280;70343;51.530;5.050;2023-06-22T04:37:31;101774.16;;;20.21;65.79
80892;BME280;70343;51.530;5.050;2023-06-22T04:39:57;101778.28;;;20.29;66.06
80892;BME280;70343;51.530;5.050;2023-06-22T04:42:22;101767.69;;;20.29;65.69
80892;BME280;70343;51.530;5.050;2023-06-22T04:44:48;101767.34;;;20.37;64.95
80892;BME280;70343;51.530;5.050;2023-06-22T04:47:13;101758.50;;;20.31;65.69
80892;BME280;70343;51.530;5.050;2023-06-22T04:49:39;101772.53;;;20.44;64.79
80892;BME280;70343;51.530;5.050;2023-06-22T04:52:09;101773.34;;;20.44;65.87
80892;BME280;70343;51.530;5.050;2023-06-22T04:54:37;101764.59;;;20.55;65.18
80892;BME280;70343;51.530;5.050;2023-06-22T04:57:04;101770.00;;;20.60;64.98
80892;BME280;70343;51.530;5.050;2023-06-22T04:59:31;101761.25;;;20.71;64.22
80892;BME280;70343;51.530;5.050;2023-06-22T05:01:57;101752.72;;;20.69;64.92
80892;BME280;70343;51.530;5.050;2023-06-22T05:04:24;101759.81;;;20.80;64.67
80892;BME280;70343;51.530;5.050;2023-06-22T05:06:53;101763.72;;;20.89;64.24
80892;BME280;70343;51.530;5.050;2023-06-22T05:09:20;101764.75;;;21.00;63.74
80892;BME280;70343;51.530;5.050;2023-06-22T05:11:46;101766.25;;;21.07;63.82
80892;BME280;70343;51.530;5.050;2023-06-22T05:14:12;101761.41;;;21.16;63.72
80892;BME280;70343;51.530;5.050;2023-06-22T05:16:38;101751.69;;;21.21;62.99
80892;BME280;70343;51.530;5.050;2023-06-22T05:19:04;101751.38;;;21.35;62.57
80892;BME280;70343;51.530;5.050;2023-06-22T05:21:30;101757.50;;;21.35;62.61
80892;BME280;70343;51.530;5.050;2023-06-22T05:23:56;101757.13;;;21.43;62.86
80892;BME280;70343;51.530;5.050;2023-06-22T05:26:30;101755.31;;;22.43;59.99
80892;BME280;70343;51.530;5.050;2023-06-22T05:28:57;101748.28;;;23.99;55.00
80892;BME280;70343;51.530;5.050;2023-06-22T05:31:23;101748.38;;;25.02;52.67
80892;BME280;70343;51.530;5.050;2023-06-22T05:33:51;101748.72;;;25.26;51.76
80892;BME280;70343;51.530;5.050;2023-06-22T05:36:17;101753.28;;;24.22;53.51
80892;BME280;70343;51.530;5.050;2023-06-22T05:38:45;101759.28;;;23.22;55.22
80892;BME280;70343;51.530;5.050;2023-06-22T05:41:11;101752.56;;;22.93;57.16
80892;BME280;70343;51.530;5.050;2023-06-22T05:43:36;101751.84;;;23.46;56.05
80892;BME280;70343;51.530;5.050;2023-06-22T05:46:04;101758.53;;;25.05;52.40
80892;BME280;70343;51.530;5.050;2023-06-22T05:48:30;101752.50;;;26.00;49.27
80892;BME280;70343;51.530;5.050;2023-06-22T05:50:56;101750.06;;;26.44;47.04
80892;BME280;70343;51.530;5.050;2023-06-22T05:53:22;101760.28;;;27.11;45.60
80892;BME280;70343;51.530;5.050;2023-06-22T05:55:47;101757.31;;;27.56;44.81
80892;BME280;70343;51.530;5.050;2023-06-22T05:58:13;101757.22;;;26.74;45.99
80892;BME280;70343;51.530;5.050;2023-06-22T06:00:39;101758.69;;;25.96;47.52
80892;BME280;70343;51.530;5.050;2023-06-22T06:03:05;101756.28;;;25.74;48.55
80892;BME280;70343;51.530;5.050;2023-06-22T06:05:31;101759.44;;;25.46;49.65
80892;BME280;70343;51.530;5.050;2023-06-22T06:07:59;101751.63;;;25.19;50.22
80892;BME280;70343;51.530;5.050;2023-06-22T06:10:24;101752.81;;;24.77;50.43
80892;BME280;70343;51.530;5.050;2023-06-22T06:12:50;101751.09;;;24.60;51.49
80892;BME280;70343;51.530;5.050;2023-06-22T06:15:16;101750.66;;;24.73;51.14
80892;BME280;70343;51.530;5.050;2023-06-22T06:17:52;101751.09;;;24.60;52.39
80892;BME280;70343;51.530;5.050;2023-06-22T06:20:19;101741.19;;;24.51;51.97
80892;BME280;70343;51.530;5.050;2023-06-22T06:22:45;101746.34;;;24.21;52.85
80892;BME280;70343;51.530;5.050;2023-06-22T06:25:11;101754.03;;;24.12;53.27
80892;BME280;70343;51.530;5.050;2023-06-22T06:27:51;101746.97;;;24.01;53.92
80892;BME280;70343;51.530;5.050;2023-06-22T06:30:18;101750.13;;;23.93;53.93
80892;BME280;70343;51.530;5.050;2023-06-22T06:32:44;101740.16;;;24.10;53.61
80892;BME280;70343;51.530;5.050;2023-06-22T06:35:12;101745.50;;;24.15;53.83
80892;BME280;70343;51.530;5.050;2023-06-22T06:37:42;101743.44;;;23.91;53.87
80892;BME280;70343;51.530;5.050;2023-06-22T06:40:10;101743.16;;;23.87;54.05
80892;BME280;70343;51.530;5.050;2023-06-22T06:42:40;101744.34;;;23.69;55.93
80892;BME280;70343;51.530;5.050;2023-06-22T06:45:16;101733.78;;;23.53;55.82
80892;BME280;70343;51.530;5.050;2023-06-22T06:47:41;101734.44;;;23.65;55.53
80892;BME280;70343;51.530;5.050;2023-06-22T06:50:07;101735.34;;;23.75;55.63
80892;BME280;70343;51.530;5.050;2023-06-22T06:52:33;101731.03;;;23.74;55.62
80892;BME280;70343;51.530;5.050;2023-06-22T06:54:59;101732.44;;;23.82;55.59
80892;BME280;70343;51.530;5.050;2023-06-22T06:57:25;101733.53;;;23.86;56.19
80892;BME280;70343;51.530;5.050;2023-06-22T06:59:57;101735.47;;;23.96;55.76
80892;BME280;70343;51.530;5.050;2023-06-22T07:02:26;101739.41;;;23.88;55.97
80892;BME280;70343;51.530;5.050;2023-06-22T07:04:53;101735.91;;;23.82;56.53
80892;BME280;70343;51.530;5.050;2023-06-22T07:07:20;101742.84;;;23.83;56.60
80892;BME280;70343;51.530;5.050;2023-06-22T07:09:46;101739.75;;;23.97;55.74
80892;BME280;70343;51.530;5.050;2023-06-22T07:12:12;101744.47;;;23.89;57.28
80892;BME280;70343;51.530;5.050;2023-06-22T07:14:37;101744.38;;;24.06;56.15
80892;BME280;70343;51.530;5.050;2023-06-22T07:17:03;101737.44;;;24.05;56.17
80892;BME280;70343;51.530;5.050;2023-06-22T07:19:29;101738.94;;;23.96;56.50
80892;BME280;70343;51.530;5.050;2023-06-22T07:21:54;101738.25;;;24.06;56.22
80892;BME280;70343;51.530;5.050;2023-06-22T07:24:21;101734.56;;;23.80;57.75
80892;BME280;70343;51.530;5.050;2023-06-22T07:26:47;101735.56;;;23.74;57.23
80892;BME280;70343;51.530;5.050;2023-06-22T07:29:14;101733.38;;;23.66;57.36
80892;BME280;70343;51.530;5.050;2023-06-22T07:31:39;101740.81;;;23.64;57.41
80892;BME280;70343;51.530;5.050;2023-06-22T07:34:06;101730.53;;;23.46;57.86
80892;BME280;70343;51.530;5.050;2023-06-22T07:36:32;101725.06;;;23.31;57.86
80892;BME280;70343;51.530;5.050;2023-06-22T07:38:57;101725.13;;;23.14;58.55
80892;BME280;70343;51.530;5.050;2023-06-22T07:41:23;101725.38;;;23.13;59.09
80892;BME280;70343;51.530;5.050;2023-06-22T07:43:49;101721.59;;;23.09;58.16
80892;BME280;70343;51.530;5.050;2023-06-22T07:46:15;101720.94;;;22.96;58.77
80892;BME280;70343;51.530;5.050;2023-06-22T07:48:41;101711.22;;;23.07;58.11
80892;BME280;70343;51.530;5.050;2023-06-22T07:51:07;101704.53;;;23.05;59.77
80892;BME280;70343;51.530;5.050;2023-06-22T07:53:33;101698.31;;;23.21;58.69
80892;BME280;70343;51.530;5.050;2023-06-22T07:55:58;101692.78;;;23.27;58.35
80892;BME280;70343;51.530;5.050;2023-06-22T07:58:24;101682.16;;;23.54;58.09
80892;BME280;70343;51.530;5.050;2023-06-22T08:00:49;101681.25;;;23.75;57.30
80892;BME280;70343;51.530;5.050;2023-06-22T08:03:15;101674.97;;;23.91;57.19
80892;BME280;70343;51.530;5.050;2023-06-22T08:05:41;101670.19;;;23.93;57.15
80892;BME280;70343;51.530;5.050;2023-06-22T08:08:06;101665.66;;;23.94;57.42
80892;BME280;70343;51.530;5.050;2023-06-22T08:10:32;101662.09;;;23.78;57.93
80892;BME280;70343;51.530;5.050;2023-06-22T08:12:57;101655.53;;;23.91;56.82
80892;BME280;70343;51.530;5.050;2023-06-22T08:15:26;101651.56;;;23.98;56.77
80892;BME280;70343;51.530;5.050;2023-06-22T08:17:52;101643.56;;;23.98;56.43
80892;BME280;70343;51.530;5.050;2023-06-22T08:20:18;101642.03;;;24.02;56.25
80892;BME280;70343;51.530;5.050;2023-06-22T08:22:43;101647.06;;;23.99;56.83
80892;BME280;70343;51.530;5.050;2023-06-22T08:25:10;101655.25;;;23.87;56.75
80892;BME280;70343;51.530;5.050;2023-06-22T08:27:36;101663.72;;;23.79;57.64
80892;BME280;70343;51.530;5.050;2023-06-22T08:30:02;101669.75;;;23.69;57.69
80892;BME280;70343;51.530;5.050;2023-06-22T08:32:28;101666.31;;;23.74;57.67
80892;BME280;70343;51.530;5.050;2023-06-22T08:34:54;101676.38;;;23.62;58.13
80892;BME280;70343;51.530;5.050;2023-06-22T08:37:20;101661.59;;;23.49;57.47
80892;BME280;70343;51.530;5.050;2023-06-22T08:39:49;101662.81;;;23.37;57.71
80892;BME280;70343;51.530;5.050;2023-06-22T08:42:15;101655.09;;;23.35;56.86
80892;BME280;70343;51.530;5.050;2023-06-22T08:44:41;101656.31;;;23.23;58.11
80892;BME280;70343;51.530;5.050;2023-06-22T08:47:07;101647.22;;;23.19;57.64
80892;BME280;70343;51.530;5.050;2023-06-22T08:49:32;101637.13;;;23.21;58.42
80892;BME280;70343;51.530;5.050;2023-06-22T08:51:58;101648.91;;;23.30;58.02
80892;BME280;70343;51.530;5.050;2023-06-22T08:54:23;101644.72;;;23.34;57.69
80892;BME280;70343;51.530;5.050;2023-06-22T08:56:49;101642.31;;;23.32;57.85
80892;BME280;70343;51.530;5.050;2023-06-22T08:59:15;101634.00;;;23.29;57.90
80892;BME280;70343;51.530;5.050;2023-06-22T09:01:40;101636.34;;;23.25;57.19
80892;BME280;70343;51.530;5.050;2023-06-22T09:04:06;101637.84;;;23.43;57.00
80892;BME280;70343;51.530;5.050;2023-06-22T09:06:34;101635.25;;;23.48;57.54
80892;BME280;70343;51.530;5.050;2023-06-22T09:09:00;101630.19;;;23.46;57.49
80892;BME280;70343;51.530;5.050;2023-06-22T09:11:25;101624.69;;;23.58;57.50
80892;BME280;70343;51.530;5.050;2023-06-22T09:13:51;101631.59;;;23.59;57.60
80892;BME280;70343;51.530;5.050;2023-06-22T09:16:18;101628.66;;;23.60;57.33
80892;BME280;70343;51.530;5.050;2023-06-22T09:18:47;101621.50;;;23.66;57.82
80892;BME280;70343;51.530;5.050;2023-06-22T09:21:13;101619.84;;;23.55;58.15
80892;BME280;70343;51.530;5.050;2023-06-22T09:23:38;101623.25;;;23.50;57.88
80892;BME280;70343;51.530;5.050;2023-06-22T09:26:04;101624.53;;;23.43;60.49
80892;BME280;70343;51.530;5.050;2023-06-22T09:28:30;101629.13;;;23.52;57.60
80892;BME280;70343;51.530;5.050;2023-06-22T09:30:56;101621.22;;;23.57;57.51
80892;BME280;70343;51.530;5.050;2023-06-22T09:33:24;101621.38;;;23.46;58.76
80892;BME280;70343;51.530;5.050;2023-06-22T09:35:50;101621.41;;;23.51;58.76
80892;BME280;70343;51.530;5.050;2023-06-22T09:38:16;101621.16;;;23.52;58.28
80892;BME280;70343;51.530;5.050;2023-06-22T09:40:42;101614.25;;;23.51;59.53
80892;BME280;70343;51.530;5.050;2023-06-22T09:43:07;101612.34;;;23.47;58.96
80892;BME280;70343;51.530;5.050;2023-06-22T09:45:33;101613.44;;;23.51;58.59
80892;BME280;70343;51.530;5.050;2023-06-22T09:47:59;101615.81;;;23.52;58.20
80892;BME280;70343;51.530;5.050;2023-06-22T09:50:24;101616.34;;;23.49;58.53
80892;BME280;70343;51.530;5.050;2023-06-22T09:52:50;101619.81;;;23.50;59.16
80892;BME280;70343;51.530;5.050;2023-06-22T09:55:23;101620.91;;;23.54;58.23
80892;BME280;70343;51.530;5.050;2023-06-22T09:57:49;101623.59;;;23.59;59.57
80892;BME280;70343;51.530;5.050;2023-06-22T10:00:16;101623.88;;;23.57;58.56
80892;BME280;70343;51.530;5.050;2023-06-22T10:02:42;101627.28;;;23.53;59.49
80892;BME280;70343;51.530;5.050;2023-06-22T10:05:08;101623.41;;;23.65;58.78
80892;BME280;70343;51.530;5.050;2023-06-22T10:07:33;101621.50;;;23.61;58.66
80892;BME280;70343;51.530;5.050;2023-06-22T10:09:59;101625.81;;;23.72;59.05
80892;BME280;70343;51.530;5.050;2023-06-22T10:12:27;101626.81;;;23.61;58.00
80892;BME280;70343;51.530;5.050;2023-06-22T10:14:52;101628.75;;;23.70;58.97
80892;BME280;70343;51.530;5.050;2023-06-22T10:17:18;101622.03;;;23.63;59.45
80892;BME280;70343;51.530;5.050;2023-06-22T10:19:43;101630.06;;;23.68;58.47
80892;BME280;70343;51.530;5.050;2023-06-22T10:22:09;101628.00;;;23.75;59.80
80892;BME280;70343;51.530;5.050;2023-06-22T10:24:35;101626.09;;;23.70;59.50
80892;BME280;70343;51.530;5.050;2023-06-22T10:27:00;101634.88;;;23.71;60.62
80892;BME280;70343;51.530;5.050;2023-06-22T10:29:26;101635.44;;;23.78;60.39
80892;BME280;70343;51.530;5.050;2023-06-22T10:31:51;101627.47;;;23.78;61.18
80892;BME280;70343;51.530;5.050;2023-06-22T10:34:17;101643.41;;;23.73;60.50
80892;BME280;70343;51.530;5.050;2023-06-22T10:36:42;101640.00;;;23.77;61.17
80892;BME280;70343;51.530;5.050;2023-06-22T10:39:08;101647.13;;;23.72;61.00
80892;BME280;70343;51.530;5.050;2023-06-22T10:41:35;101640.13;;;23.61;61.13
80892;BME280;70343;51.530;5.050;2023-06-22T10:44:00;101643.13;;;23.69;62.53
80892;BME280;70343;51.530;5.050;2023-06-22T10:46:26;101650.28;;;23.64;62.37
80892;BME280;70343;51.530;5.050;2023-06-22T10:48:52;101648.19;;;23.71;62.21
80892;BME280;70343;51.530;5.050;2023-06-22T10:51:20;101648.66;;;23.63;62.60
80892;BME280;70343;51.530;5.050;2023-06-22T10:53:46;101643.53;;;23.56;63.97
80892;BME280;70343;51.530;5.050;2023-06-22T10:58:37;101657.41;;;23.58;63.70
80892;BME280;70343;51.530;5.050;2023-06-22T11:01:02;101660.03;;;23.48;63.81
80892;BME280;70343;51.530;5.050;2023-06-22T11:03:28;101665.84;;;23.45;62.85
80892;BME280;70343;51.530;5.050;2023-06-22T11:05:54;101666.28;;;23.37;63.32
80892;BME280;70343;51.530;5.050;2023-06-22T11:08:19;101665.47;;;23.37;63.89
80892;BME280;70343;51.530;5.050;2023-06-22T11:10:45;101667.94;;;23.17;66.21
80892;BME280;70343;51.530;5.050;2023-06-22T11:13:10;101658.75;;;23.02;67.96
80892;BME280;70343;51.530;5.050;2023-06-22T11:15:36;101648.78;;;22.45;73.88
80892;BME280;70343;51.530;5.050;2023-06-22T11:18:02;101656.38;;;22.36;74.26
80892;BME280;70343;51.530;5.050;2023-06-22T11:20:27;101648.91;;;22.33;72.48
80892;BME280;70343;51.530;5.050;2023-06-22T11:22:53;101643.38;;;22.18;75.91
80892;BME280;70343;51.530;5.050;2023-06-22T11:25:18;101641.06;;;22.05;78.02
80892;BME280;70343;51.530;5.050;2023-06-22T11:27:44;101645.09;;;21.91;78.90
80892;BME280;70343;51.530;5.050;2023-06-22T11:30:09;101641.13;;;21.88;77.65
80892;BME280;70343;51.530;5.050;2023-06-22T11:32:35;101629.72;;;21.93;77.36
80892;BME280;70343;51.530;5.050;2023-06-22T11:35:01;101631.44;;;21.66;81.63
80892;BME280;70343;51.530;5.050;2023-06-22T11:37:26;101628.53;;;21.51;84.94
80892;BME280;70343;51.530;5.050;2023-06-22T11:39:52;101626.91;;;21.50;82.63
80892;BME280;70343;51.530;5.050;2023-06-22T11:42:20;101629.75;;;21.60;82.25
80892;BME280;70343;51.530;5.050;2023-06-22T11:44:46;101624.84;;;21.52;81.89
80892;BME280;70343;51.530;5.050;2023-06-22T11:47:11;101628.13;;;21.42;81.82
80892;BME280;70343;51.530;5.050;2023-06-22T11:49:37;101626.84;;;21.45;80.98
80892;BME280;70343;51.530;5.050;2023-06-22T11:52:02;101629.72;;;21.26;83.12
80892;BME280;70343;51.530;5.050;2023-06-22T11:54:28;101628.28;;;21.19;82.76
80892;BME280;70343;51.530;5.050;2023-06-22T11:56:53;101625.75;;;21.12;82.43
80892;BME280;70343;51.530;5.050;2023-06-22T11:59:19;101617.06;;;21.00;84.42
80892;BME280;70343;51.530;5.050;2023-06-22T12:01:47;101631.72;;;20.91;83.50
80892;BME280;70343;51.530;5.050;2023-06-22T12:04:12;101623.50;;;20.76;85.53
80892;BME280;70343;51.530;5.050;2023-06-22T12:06:38;101627.13;;;20.59;87.01
80892;BME280;70343;51.530;5.050;2023-06-22T12:09:07;101634.69;;;20.27;87.14
80892;BME280;70343;51.530;5.050;2023-06-22T12:11:33;101625.94;;;19.92;91.35
80892;BME280;70343;51.530;5.050;2023-06-22T12:13:58;101625.25;;;19.85;93.65
80892;BME280;70343;51.530;5.050;2023-06-22T12:16:27;101632.72;;;19.76;94.57
80892;BME280;70343;51.530;5.050;2023-06-22T12:18:52;101624.09;;;19.58;94.49
80892;BME280;70343;51.530;5.050;2023-06-22T12:21:19;101617.50;;;19.48;94.93
80892;BME280;70343;51.530;5.050;2023-06-22T12:23:44;101614.88;;;19.48;95.81
80892;BME280;70343;51.530;5.050;2023-06-22T12:26:10;101609.25;;;19.57;95.74
80892;BME280;70343;51.530;5.050;2023-06-22T12:28:35;101610.13;;;19.39;95.89
80892;BME280;70343;51.530;5.050;2023-06-22T12:31:01;101607.97;;;19.36;96.18
80892;BME280;70343;51.530;5.050;2023-06-22T12:33:26;101612.28;;;19.30;96.48
80892;BME280;70343;51.530;5.050;2023-06-22T12:35:52;101603.50;;;19.36;97.00
80892;BME280;70343;51.530;5.050;2023-06-22T12:38:17;101605.31;;;19.47;97.27
80892;BME280;70343;51.530;5.050;2023-06-22T12:40:43;101597.72;;;19.39;97.13
80892;BME280;70343;51.530;5.050;2023-06-22T12:43:08;101601.72;;;19.30;96.59
80892;BME280;70343;51.530;5.050;2023-06-22T12:45:34;101593.88;;;19.24;97.36
80892;BME280;70343;51.530;5.050;2023-06-22T12:48:00;101579.81;;;19.12;97.44
80892;BME280;70343;51.530;5.050;2023-06-22T12:50:26;101575.72;;;19.27;97.71
80892;BME280;70343;51.530;5.050;2023-06-22T12:52:51;101588.16;;;19.27;97.89
80892;BME280;70343;51.530;5.050;2023-06-22T12:55:17;101578.81;;;19.24;97.48
80892;BME280;70343;51.530;5.050;2023-06-22T12:57:42;101578.69;;;19.19;97.59
80892;BME280;70343;51.530;5.050;2023-06-22T13:00:08;101575.34;;;19.12;97.15